createdAt,value
2017-09-11T00:00:13.311Z,99.90
2017-09-11T00:02:40.987Z,99.90
2017-09-11T00:05:09.731Z,99.90
2017-09-11T00:07:37.383Z,99.90
2017-09-11T00:10:05.005Z,99.90
2017-09-11T00:12:32.643Z,99.90
2017-09-11T00:15:01.196Z,99.90
2017-09-11T00:17:28.828Z,99.90
2017-09-11T00:19:57.269Z,99.90
2017-09-11T00:22:24.889Z,99.90
2017-09-11T00:24:52.508Z,99.90
2017-09-11T00:27:20.141Z,99.90
2017-09-11T00:29:47.800Z,99.90
2017-09-11T00:32:15.417Z,99.90
2017-09-11T00:34:43.812Z,99.90
2017-09-11T00:37:11.495Z,99.90
2017-09-11T00:39:39.150Z,99.90
2017-09-11T00:42:06.972Z,99.90
2017-09-11T00:44:34.628Z,99.90
2017-09-11T00:47:02.273Z,99.90
2017-09-11T00:49:29.941Z,99.90
2017-09-11T00:51:57.606Z,99.90
2017-09-11T00:54:25.261Z,99.90
2017-09-11T00:56:52.943Z,99.90
2017-09-11T00:59:20.568Z,99.90
2017-09-11T01:01:48.189Z,99.90
2017-09-11T01:04:16.612Z,99.90
2017-09-11T01:06:44.233Z,99.90
2017-09-11T01:09:11.998Z,99.90
2017-09-11T01:11:40.445Z,99.90
2017-09-11T01:14:08.041Z,99.90
2017-09-11T01:16:35.660Z,99.90
2017-09-11T01:19:03.345Z,99.90
2017-09-11T01:21:31.061Z,99.90
2017-09-11T01:23:58.732Z,99.90
2017-09-11T01:26:26.409Z,99.90
2017-09-11T01:28:54.570Z,99.90
2017-09-11T01:31:22.258Z,99.90
2017-09-11T01:33:50.517Z,99.90
2017-09-11T01:36:18.131Z,99.90
2017-09-11T01:38:46.531Z,99.90
2017-09-11T01:41:14.170Z,99.90
2017-09-11T01:43:41.802Z,99.90
2017-09-11T01:46:09.490Z,99.90
2017-09-11T01:48:37.113Z,99.90
2017-09-11T01:51:04.732Z,99.90
2017-09-11T01:53:33.155Z,99.90
2017-09-11T01:56:00.753Z,99.90
2017-09-11T01:58:28.413Z,99.90
2017-09-11T02:00:56.127Z,99.90
2017-09-11T02:03:23.770Z,99.90
2017-09-11T02:05:51.404Z,99.90
2017-09-11T02:08:19.071Z,99.90
2017-09-11T02:10:46.698Z,99.90
2017-09-11T02:13:14.311Z,99.90
2017-09-11T02:15:42.715Z,99.90
2017-09-11T02:18:10.345Z,99.90
2017-09-11T02:20:37.990Z,99.90
2017-09-11T02:23:05.653Z,99.90
2017-09-11T02:25:33.658Z,99.90
2017-09-11T02:28:01.704Z,99.90
2017-09-11T02:30:29.920Z,99.90
2017-09-11T02:32:57.548Z,99.90
2017-09-11T02:35:25.211Z,99.90
2017-09-11T02:37:52.856Z,99.90
2017-09-11T02:40:20.486Z,99.90
2017-09-11T02:42:48.148Z,99.90
2017-09-11T02:45:15.784Z,99.90
2017-09-11T02:47:43.439Z,99.90
2017-09-11T02:50:11.172Z,99.90
2017-09-11T02:52:39.056Z,99.90
2017-09-11T02:55:06.734Z,99.90
2017-09-11T02:57:34.842Z,99.90
2017-09-11T03:00:05.304Z,99.90
2017-09-11T03:02:32.925Z,99.90
2017-09-11T03:05:00.563Z,99.90
2017-09-11T03:07:28.284Z,99.90
2017-09-11T03:09:55.929Z,99.90
2017-09-11T03:12:23.569Z,99.90
2017-09-11T03:14:51.185Z,99.90
2017-09-11T03:17:19.596Z,99.90
2017-09-11T03:19:47.247Z,99.90
2017-09-11T03:22:14.887Z,99.90
2017-09-11T03:24:42.490Z,99.90
2017-09-11T03:27:10.312Z,99.90
2017-09-11T03:29:37.958Z,99.90
2017-09-11T03:32:05.747Z,99.90
2017-09-11T03:34:33.404Z,99.90
2017-09-11T03:37:01.053Z,99.90
2017-09-11T03:39:28.672Z,99.90
2017-09-11T03:41:56.299Z,99.90
2017-09-11T03:44:23.957Z,99.90
2017-09-11T03:46:52.332Z,99.90
2017-09-11T03:49:19.932Z,99.90
2017-09-11T03:51:47.560Z,99.90
2017-09-11T03:54:15.247Z,99.90
2017-09-11T03:56:42.858Z,99.90
2017-09-11T03:59:10.469Z,99.90
2017-09-11T04:01:38.104Z,99.90
2017-09-11T04:04:05.719Z,99.90
2017-09-11T04:06:33.422Z,99.90
2017-09-11T04:09:01.055Z,99.90
2017-09-11T04:11:28.687Z,99.90
2017-09-11T04:13:56.300Z,99.90
2017-09-11T04:16:23.954Z,99.90
2017-09-11T04:18:51.568Z,99.90
2017-09-11T04:21:19.182Z,99.90
2017-09-11T04:23:46.828Z,99.90
2017-09-11T04:26:14.439Z,99.90
2017-09-11T04:28:42.053Z,99.90
2017-09-11T04:31:09.751Z,99.90
2017-09-11T04:33:38.164Z,99.90
2017-09-11T04:36:05.832Z,99.90
2017-09-11T04:38:33.473Z,99.90
2017-09-11T04:41:01.091Z,99.90
2017-09-11T04:43:28.801Z,99.90
2017-09-11T04:45:56.449Z,99.90
2017-09-11T04:48:24.096Z,99.90
2017-09-11T04:50:51.747Z,99.90
2017-09-11T04:53:19.366Z,99.90
2017-09-11T04:55:47.015Z,99.90
2017-09-11T04:58:14.773Z,99.90
2017-09-11T05:00:43.159Z,99.90
2017-09-11T05:03:10.805Z,99.90
2017-09-11T05:05:38.472Z,99.90
2017-09-11T05:08:06.880Z,99.90
2017-09-11T05:10:34.545Z,99.90
2017-09-11T05:13:02.182Z,99.90
2017-09-11T05:15:29.835Z,99.90
2017-09-11T05:17:57.463Z,99.90
2017-09-11T05:20:25.091Z,99.90
2017-09-11T05:22:52.740Z,99.90
2017-09-11T05:25:20.388Z,99.90
2017-09-11T05:27:48.788Z,99.90
2017-09-11T05:30:16.427Z,99.90
2017-09-11T05:32:44.048Z,99.90
2017-09-11T05:35:11.744Z,99.90
2017-09-11T05:37:39.380Z,99.90
2017-09-11T05:40:07.018Z,99.90
2017-09-11T05:42:34.645Z,99.90
2017-09-11T05:45:03.255Z,99.90
2017-09-11T05:47:30.887Z,99.90
2017-09-11T05:49:58.598Z,99.90
2017-09-11T05:52:26.207Z,99.90
2017-09-11T05:54:53.857Z,99.90
2017-09-11T05:57:21.543Z,99.90
2017-09-11T05:59:49.220Z,99.90
2017-09-11T06:02:16.830Z,99.90
2017-09-11T06:04:44.513Z,99.90
2017-09-11T06:07:12.122Z,99.90
2017-09-11T06:09:39.746Z,99.90
2017-09-11T06:12:08.160Z,99.90
2017-09-11T06:14:35.785Z,99.90
2017-09-11T06:17:03.422Z,99.90
2017-09-11T06:19:31.169Z,99.90
2017-09-11T06:21:58.794Z,99.90
2017-09-11T06:24:26.481Z,99.90
2017-09-11T06:26:54.124Z,99.90
2017-09-11T06:29:21.841Z,99.90
2017-09-11T06:31:51.797Z,99.90
2017-09-11T06:34:19.534Z,99.90
2017-09-11T06:36:47.172Z,99.90
2017-09-11T06:39:14.779Z,99.90
2017-09-11T06:41:43.188Z,99.90
2017-09-11T06:44:10.864Z,99.90
2017-09-11T06:46:38.461Z,99.90
2017-09-11T06:49:07.730Z,99.90
2017-09-11T06:51:35.357Z,99.90
2017-09-11T06:54:03.865Z,99.90
2017-09-11T06:56:31.495Z,99.90
2017-09-11T06:58:59.909Z,99.90
2017-09-11T07:01:27.517Z,99.90
2017-09-11T07:03:55.160Z,99.90
2017-09-11T07:06:22.843Z,99.90
2017-09-11T07:08:50.465Z,99.90
2017-09-11T07:11:18.073Z,99.90
2017-09-11T07:13:45.721Z,99.90
2017-09-11T07:16:13.326Z,99.90
2017-09-11T07:18:40.988Z,99.90
2017-09-11T07:21:13.625Z,99.90
2017-09-11T07:23:41.262Z,99.90
2017-09-11T07:26:09.033Z,99.90
2017-09-11T07:28:36.688Z,99.90
2017-09-11T07:31:04.434Z,99.90
2017-09-11T07:33:32.129Z,99.90
2017-09-11T07:35:59.999Z,99.90
2017-09-11T07:38:27.650Z,99.90
2017-09-11T07:40:55.260Z,99.90
2017-09-11T07:43:26.787Z,99.90
2017-09-11T07:45:54.396Z,99.90
2017-09-11T07:48:22.028Z,99.90
2017-09-11T07:50:49.664Z,99.90
2017-09-11T07:53:17.366Z,99.90
2017-09-11T07:55:45.067Z,99.90
2017-09-11T07:58:12.714Z,99.90
2017-09-11T08:00:40.382Z,99.90
2017-09-11T08:03:08.242Z,99.90
2017-09-11T08:05:35.917Z,99.90
2017-09-11T08:08:03.556Z,99.90
2017-09-11T08:10:31.188Z,99.90
2017-09-11T08:12:58.847Z,99.90
2017-09-11T08:15:26.483Z,99.90
2017-09-11T08:17:54.142Z,99.90
2017-09-11T08:20:21.792Z,99.90
2017-09-11T08:22:49.417Z,99.90
2017-09-11T08:25:17.092Z,99.90
2017-09-11T08:27:44.743Z,99.90
2017-09-11T08:30:12.496Z,99.90
2017-09-11T08:32:40.114Z,99.90
2017-09-11T08:35:07.773Z,99.90
2017-09-11T08:37:36.386Z,99.90
2017-09-11T08:40:04.079Z,99.90
2017-09-11T08:42:31.722Z,99.90
2017-09-11T08:44:59.342Z,99.90
2017-09-11T08:47:27.466Z,99.70
2017-09-11T08:49:55.136Z,99.90
2017-09-11T08:52:22.831Z,99.90
2017-09-11T08:54:50.444Z,99.90
2017-09-11T08:57:18.395Z,99.90
2017-09-11T08:59:46.029Z,99.90
2017-09-11T09:02:13.648Z,99.90
2017-09-11T09:04:41.303Z,99.90
2017-09-11T09:07:09.028Z,99.90
2017-09-11T09:09:36.730Z,99.90
2017-09-11T09:12:05.191Z,99.90
2017-09-11T09:14:32.858Z,99.90
2017-09-11T09:17:00.511Z,99.90
2017-09-11T09:19:28.224Z,99.90
2017-09-11T09:21:56.281Z,99.90
2017-09-11T09:24:23.949Z,99.90
2017-09-11T09:26:52.380Z,99.90
2017-09-11T09:29:20.077Z,99.90
2017-09-11T09:31:47.758Z,99.90
2017-09-11T09:34:16.311Z,99.90
2017-09-11T09:36:43.963Z,99.90
2017-09-11T09:39:11.656Z,99.90
2017-09-11T09:41:39.397Z,99.90
2017-09-11T09:44:07.118Z,99.90
2017-09-11T09:46:42.857Z,99.90
2017-09-11T09:49:11.322Z,99.90
2017-09-11T09:51:39.004Z,99.90
2017-09-11T09:54:06.778Z,99.90
2017-09-11T09:56:34.457Z,99.90
2017-09-11T09:59:02.115Z,99.90
2017-09-11T10:01:29.853Z,99.90
2017-09-11T10:03:57.519Z,99.90
2017-09-11T10:06:25.183Z,99.90
2017-09-11T10:08:52.836Z,99.90
2017-09-11T10:11:20.637Z,99.90
2017-09-11T10:13:49.342Z,99.90
2017-09-11T10:16:17.217Z,99.90
2017-09-11T10:18:45.141Z,99.90
2017-09-11T10:21:13.141Z,99.90
2017-09-11T10:23:41.357Z,99.90
2017-09-11T10:26:09.073Z,99.90
2017-09-11T10:28:36.812Z,99.90
2017-09-11T10:31:52.434Z,99.90
2017-09-11T10:34:20.117Z,99.90
2017-09-11T10:36:50.447Z,99.90
2017-09-11T10:39:21.226Z,99.90
2017-09-11T10:41:48.968Z,99.90
2017-09-11T10:44:16.593Z,99.40
2017-09-11T10:46:44.569Z,98.50
2017-09-11T10:49:13.338Z,99.20
2017-09-11T10:51:41.058Z,98.80
2017-09-11T10:54:08.775Z,98.90
2017-09-11T10:56:36.483Z,99.20
2017-09-11T10:59:05.015Z,99.60
2017-09-11T11:01:32.653Z,99.50
2017-09-11T11:04:01.086Z,99.50
2017-09-11T11:06:28.772Z,99.50
2017-09-11T11:08:57.236Z,99.30
2017-09-11T11:11:24.931Z,99.00
2017-09-11T11:13:52.622Z,99.30
2017-09-11T11:16:20.489Z,98.90
2017-09-11T11:18:48.243Z,99.90
2017-09-11T11:21:15.901Z,99.90
2017-09-11T11:23:43.633Z,99.90
2017-09-11T11:26:11.383Z,99.90
2017-09-11T11:28:40.185Z,99.90
2017-09-11T11:31:07.964Z,99.90
2017-09-11T11:33:35.700Z,99.90
2017-09-11T11:36:03.439Z,99.90
2017-09-11T11:38:31.170Z,99.90
2017-09-11T11:40:58.876Z,99.90
2017-09-11T11:43:27.054Z,99.90
2017-09-11T11:45:54.819Z,99.90
2017-09-11T11:48:24.066Z,99.90
2017-09-11T11:50:51.791Z,99.90
2017-09-11T11:53:19.896Z,99.90
2017-09-11T11:55:48.314Z,99.90
2017-09-11T11:58:15.967Z,99.90
2017-09-11T12:00:43.659Z,99.90
2017-09-11T12:03:11.572Z,99.90
2017-09-11T12:05:39.949Z,99.90
2017-09-11T12:08:07.570Z,99.90
2017-09-11T12:10:35.200Z,99.90
2017-09-11T12:13:03.021Z,99.90
2017-09-11T12:15:30.729Z,99.90
2017-09-11T12:17:58.494Z,99.90
2017-09-11T12:20:26.491Z,99.90
2017-09-11T12:22:54.392Z,99.90
2017-09-11T12:25:22.416Z,99.90
2017-09-11T12:27:50.990Z,99.90
2017-09-11T12:30:19.727Z,99.90
2017-09-11T12:32:47.400Z,99.90
2017-09-11T12:35:15.025Z,99.90
2017-09-11T12:37:42.704Z,99.90
2017-09-11T12:40:10.376Z,99.90
2017-09-11T12:42:38.004Z,99.90
2017-09-11T12:45:05.893Z,99.90
2017-09-11T12:47:34.355Z,99.90
2017-09-11T12:50:01.982Z,99.90
2017-09-11T12:52:29.669Z,99.90
2017-09-11T12:54:57.355Z,99.90
2017-09-11T12:57:24.989Z,99.90
2017-09-11T12:59:52.729Z,99.90
2017-09-11T13:02:21.135Z,99.90
2017-09-11T13:04:48.788Z,99.90
2017-09-11T13:07:16.442Z,99.90
2017-09-11T13:09:44.097Z,99.90
2017-09-11T13:12:11.751Z,99.90
2017-09-11T13:14:39.390Z,99.90
2017-09-11T13:17:07.025Z,99.90
2017-09-11T13:19:34.747Z,99.90
2017-09-11T13:22:02.440Z,99.90
2017-09-11T13:24:30.075Z,99.90
2017-09-11T13:27:17.597Z,99.90
2017-09-11T13:29:45.242Z,99.90
2017-09-11T13:32:12.951Z,99.90
2017-09-11T13:34:40.600Z,99.90
2017-09-11T13:37:08.241Z,99.90
2017-09-11T13:39:35.877Z,99.90
2017-09-11T13:42:03.563Z,99.90
2017-09-11T13:44:31.183Z,99.90
2017-09-11T13:46:59.585Z,99.90
2017-09-11T13:49:28.339Z,99.90
2017-09-11T13:51:55.962Z,99.90
2017-09-11T13:54:23.585Z,99.90
2017-09-11T13:56:51.277Z,99.90
2017-09-11T13:59:18.902Z,99.90
2017-09-11T14:01:46.516Z,99.90
2017-09-11T14:04:14.183Z,99.90
2017-09-11T14:06:41.817Z,99.90
2017-09-11T14:09:09.537Z,99.90
2017-09-11T14:11:37.405Z,99.90
2017-09-11T14:14:05.081Z,99.90
2017-09-11T14:16:32.767Z,99.90
2017-09-11T14:19:00.432Z,99.90
2017-09-11T14:21:28.057Z,99.90
2017-09-11T14:23:55.700Z,99.90
2017-09-11T14:26:23.401Z,99.90
2017-09-11T14:28:51.473Z,99.90
2017-09-11T14:31:19.112Z,99.90
2017-09-11T14:33:46.743Z,99.90
2017-09-11T14:36:14.564Z,99.90
2017-09-11T14:38:43.032Z,99.90
2017-09-11T14:41:11.447Z,99.90
2017-09-11T14:43:39.079Z,99.90
2017-09-11T14:46:06.740Z,99.90
2017-09-11T14:48:34.399Z,99.90
2017-09-11T14:51:02.018Z,99.90
2017-09-11T14:53:29.702Z,99.90
2017-09-11T14:55:57.375Z,99.90
2017-09-11T14:58:25.010Z,99.90
2017-09-11T15:00:53.463Z,99.90
2017-09-11T15:03:21.147Z,99.90
2017-09-11T15:05:48.783Z,99.90
2017-09-11T15:08:16.450Z,99.90
2017-09-11T15:10:44.122Z,99.90
2017-09-11T15:13:12.167Z,99.90
2017-09-11T15:15:39.802Z,99.90
2017-09-11T15:18:07.468Z,99.90
2017-09-11T15:20:35.090Z,99.90
2017-09-11T15:23:02.699Z,99.90
2017-09-11T15:25:30.375Z,99.90
2017-09-11T15:27:58.054Z,99.90
2017-09-11T15:30:25.665Z,99.90
2017-09-11T15:32:53.346Z,99.90
2017-09-11T15:35:21.001Z,99.90
2017-09-11T15:37:48.652Z,99.90
2017-09-11T15:40:17.066Z,99.90
2017-09-11T15:42:44.810Z,99.90
2017-09-11T15:45:13.507Z,99.90
2017-09-11T15:47:41.278Z,99.90
2017-09-11T15:50:08.928Z,99.90
2017-09-11T15:52:36.600Z,99.90
2017-09-11T15:55:04.249Z,99.90
2017-09-11T15:57:31.876Z,99.90
2017-09-11T15:59:59.514Z,99.90
2017-09-11T16:02:27.188Z,99.90
2017-09-11T16:04:54.792Z,99.90
2017-09-11T16:07:23.968Z,99.90
2017-09-11T16:09:52.403Z,99.90
2017-09-11T16:12:20.036Z,99.90
2017-09-11T16:14:47.693Z,99.90
2017-09-11T16:17:15.338Z,99.90
2017-09-11T16:19:42.943Z,99.90
2017-09-11T16:22:10.590Z,99.90
2017-09-11T16:24:38.265Z,99.90
2017-09-11T16:27:06.130Z,99.90
2017-09-11T16:29:33.811Z,99.90
2017-09-11T16:32:01.494Z,99.90
2017-09-11T16:34:29.166Z,99.90
2017-09-11T16:36:56.802Z,99.90
2017-09-11T16:39:24.572Z,99.90
2017-09-11T16:41:52.295Z,99.90
2017-09-11T16:44:20.942Z,99.90
2017-09-11T16:46:48.614Z,99.90
2017-09-11T16:49:16.298Z,99.90
2017-09-11T16:51:44.008Z,99.90
2017-09-11T16:54:11.855Z,99.90
2017-09-11T16:56:39.524Z,99.90
2017-09-11T16:59:07.209Z,99.90
2017-09-11T17:01:34.927Z,99.90
2017-09-11T17:04:02.617Z,99.90
2017-09-11T17:06:30.289Z,99.90
2017-09-11T17:08:57.968Z,99.90
2017-09-11T17:11:25.803Z,99.90
2017-09-11T17:13:53.430Z,99.90
2017-09-11T17:16:21.728Z,99.90
2017-09-11T17:18:49.374Z,99.90
2017-09-11T17:21:17.059Z,99.90
2017-09-11T17:23:44.695Z,99.90
2017-09-11T17:26:13.153Z,99.90
2017-09-11T17:28:40.817Z,99.90
2017-09-11T17:31:08.831Z,99.90
2017-09-11T17:33:36.539Z,99.90
2017-09-11T17:36:04.508Z,99.90
2017-09-11T17:38:32.422Z,99.90
2017-09-11T17:41:00.887Z,99.90
2017-09-11T17:43:30.847Z,99.90
2017-09-11T17:45:58.525Z,99.90
2017-09-11T17:48:26.179Z,99.90
2017-09-11T17:50:54.785Z,99.90
2017-09-11T17:53:23.769Z,99.90
2017-09-11T17:55:52.388Z,99.90
2017-09-11T17:58:20.013Z,99.90
2017-09-11T18:00:47.683Z,99.90
2017-09-11T18:03:15.383Z,99.90
2017-09-11T18:05:43.802Z,99.90
2017-09-11T18:08:11.536Z,99.90
2017-09-11T18:10:39.381Z,99.90
2017-09-11T18:13:07.309Z,99.90
2017-09-11T18:15:36.456Z,99.90
2017-09-11T18:18:06.306Z,99.90
2017-09-11T18:20:34.105Z,99.90
2017-09-11T18:23:01.853Z,99.90
2017-09-11T18:25:29.797Z,99.90
2017-09-11T18:27:57.463Z,99.90
2017-09-11T18:30:25.334Z,99.90
2017-09-11T18:32:52.995Z,99.90
2017-09-11T18:35:20.644Z,99.90
2017-09-11T18:37:48.328Z,99.90
2017-09-11T18:40:16.011Z,99.90
2017-09-11T18:42:43.690Z,99.90
2017-09-11T18:45:12.128Z,99.90
2017-09-11T18:50:13.771Z,99.90
2017-09-11T18:52:45.165Z,99.90
2017-09-11T18:55:17.879Z,99.90
2017-09-11T18:57:52.367Z,99.90
2017-09-11T19:00:23.114Z,99.90
2017-09-11T19:02:51.002Z,99.90
2017-09-11T19:05:18.838Z,99.90
2017-09-11T19:07:46.602Z,99.90
2017-09-11T19:10:14.285Z,99.90
2017-09-11T19:12:41.979Z,99.90
2017-09-11T19:15:09.811Z,99.90
2017-09-11T19:17:37.487Z,99.90
2017-09-11T19:20:05.120Z,99.90
2017-09-11T19:22:32.753Z,99.90
2017-09-11T19:25:01.164Z,99.90
2017-09-11T19:27:28.840Z,99.90
2017-09-11T19:29:56.579Z,99.90
2017-09-11T19:32:25.009Z,99.90
2017-09-11T19:34:52.720Z,99.90
2017-09-11T19:37:21.606Z,99.90
2017-09-11T19:39:49.329Z,99.90
2017-09-11T19:42:16.976Z,99.90
2017-09-11T19:44:44.619Z,99.90
2017-09-11T19:47:12.489Z,99.90
2017-09-11T19:49:40.238Z,99.90
2017-09-11T19:52:07.876Z,99.90
2017-09-11T19:54:36.310Z,99.90
2017-09-11T19:57:03.948Z,99.90
2017-09-11T19:59:31.596Z,99.90
2017-09-11T20:02:00.620Z,99.90
2017-09-11T20:04:28.248Z,99.90
2017-09-11T20:06:55.900Z,99.90
2017-09-11T20:09:23.592Z,99.90
2017-09-11T20:11:52.181Z,99.90
2017-09-11T20:14:21.095Z,99.90
2017-09-11T20:16:48.938Z,99.90
2017-09-11T20:19:18.570Z,99.90
2017-09-11T20:21:46.227Z,99.90
2017-09-11T20:24:13.981Z,99.90
2017-09-11T20:26:41.609Z,99.90
2017-09-11T20:29:09.353Z,99.90
2017-09-11T20:31:37.824Z,99.90
2017-09-11T20:34:05.443Z,99.90
2017-09-11T20:36:33.094Z,99.90
2017-09-11T20:39:00.762Z,99.90
2017-09-11T20:41:28.512Z,99.90
2017-09-11T20:43:56.994Z,99.90
2017-09-11T20:46:25.427Z,99.90
2017-09-11T20:48:53.073Z,99.90
2017-09-11T20:51:22.653Z,99.90
2017-09-11T20:53:51.130Z,99.90
2017-09-11T20:56:18.783Z,99.90
2017-09-11T20:58:46.515Z,99.90
2017-09-11T21:01:14.211Z,99.90
2017-09-11T21:03:42.147Z,99.90
2017-09-11T21:06:09.970Z,99.90
2017-09-11T21:08:37.618Z,99.90
2017-09-11T21:11:05.379Z,99.90
2017-09-11T21:13:33.032Z,99.90
2017-09-11T21:16:00.700Z,99.90
2017-09-11T21:18:29.099Z,99.90
2017-09-11T21:20:56.837Z,99.90
2017-09-11T21:23:25.732Z,99.90
2017-09-11T21:25:53.488Z,99.90
2017-09-11T21:28:21.228Z,99.90
2017-09-11T21:30:48.952Z,99.90
2017-09-11T21:33:17.603Z,99.90
2017-09-11T21:35:46.035Z,99.90
2017-09-11T21:38:13.780Z,99.90
2017-09-11T21:40:41.509Z,99.90
2017-09-11T21:43:09.501Z,99.90
2017-09-11T21:45:38.169Z,99.90
2017-09-11T21:48:07.867Z,99.90
2017-09-11T21:50:35.543Z,99.90
2017-09-11T21:53:03.266Z,99.90
2017-09-11T21:55:30.969Z,99.90
2017-09-11T21:57:58.643Z,99.90
2017-09-11T22:00:26.397Z,99.90
2017-09-11T22:02:54.871Z,99.90
2017-09-11T22:05:24.781Z,99.90
2017-09-11T22:07:53.288Z,99.90
2017-09-11T22:10:21.174Z,99.90
2017-09-11T22:12:54.042Z,99.90
2017-09-11T22:15:21.996Z,99.90
2017-09-11T22:17:50.620Z,99.90
2017-09-11T22:20:19.392Z,99.90
2017-09-11T22:22:48.838Z,99.90
2017-09-11T22:25:16.507Z,99.90
2017-09-11T22:27:44.828Z,99.90
2017-09-11T22:30:13.956Z,99.90
2017-09-11T22:32:42.062Z,99.90
2017-09-11T22:35:09.817Z,99.90
2017-09-11T22:37:37.496Z,99.90
2017-09-11T22:40:05.946Z,99.90
2017-09-11T22:42:33.728Z,99.90
2017-09-11T22:45:01.419Z,99.90
2017-09-11T22:47:29.194Z,99.90
2017-09-11T22:49:56.875Z,99.90
2017-09-11T22:52:24.544Z,99.90
2017-09-11T22:54:52.784Z,99.90
2017-09-11T22:57:20.442Z,99.90
2017-09-11T22:59:48.471Z,99.90
2017-09-11T23:02:16.095Z,99.90
2017-09-11T23:04:44.540Z,99.90
2017-09-11T23:07:12.159Z,99.90
2017-09-11T23:09:39.800Z,99.90
2017-09-11T23:12:08.273Z,99.90
2017-09-11T23:14:36.684Z,99.90
2017-09-11T23:17:04.366Z,99.90
2017-09-11T23:19:32.010Z,99.90
2017-09-11T23:21:59.624Z,99.90
2017-09-11T23:24:27.254Z,99.90
2017-09-11T23:26:54.918Z,99.90
2017-09-11T23:29:22.597Z,99.90
2017-09-11T23:31:50.227Z,99.90
2017-09-11T23:34:17.881Z,99.90
2017-09-11T23:36:45.541Z,99.90
2017-09-11T23:39:13.171Z,99.90
2017-09-11T23:41:40.816Z,99.90
2017-09-11T23:44:08.455Z,99.90
2017-09-11T23:46:36.090Z,99.90
2017-09-11T23:49:03.766Z,99.90
2017-09-11T23:51:31.486Z,99.90
2017-09-11T23:53:59.091Z,99.90
2017-09-11T23:56:26.803Z,99.90
2017-09-11T23:58:54.485Z,99.90
